Time;durP1;ratioP1;P1;durP2;ratioP2;P2;SDS_P1;SDS_P2;PMS_P1;PMS_P2;Temp;Humidity;BMP_temperature;BMP_pressure;BME280_temperature;BME280_humidity;BME280_pressure;Samples;Min_cycle;Max_cycle;Signal;HPM_P1;HPM_P2
2023/06/22 00:01:49;;;;;;;4.10;3.10;;;;;;;;;;4959150;28;20463;-80
2023/06/22 00:04:17;;;;;;;4.47;3.23;;;;;;;;;;4948408;29;20455;-81
2023/06/22 00:06:45;;;;;;;4.73;4.17;;;;;;;;;;4956201;29;20475;-80
2023/06/22 00:11:55;;;;;;;5.60;5.00;;;;;;;;;;4951655;28;20524;-80
2023/06/22 00:14:23;;;;;;;5.80;4.40;;;;;;;;;;5001537;23;20584;-71
2023/06/22 00:16:54;;;;;;;6.50;5.03;;;;;;;;;;4979176;28;20456;-72
2023/06/22 00:19:22;;;;;;;6.87;4.70;;;;;;;;;;4977605;28;20454;-72
2023/06/22 00:21:52;;;;;;;5.47;4.00;;;;;;;;;;4979958;28;20535;-72
2023/06/22 00:24:20;;;;;;;5.33;4.07;;;;;;;;;;4981305;28;20461;-72
2023/06/22 00:42:25;;;;;;;8.13;4.67;;;;;;;;;;3112407;23;20784;-72
2023/06/22 00:44:53;;;;;;;6.10;4.53;;;;;;;;;;4981126;28;20453;-72
2023/06/22 00:47:31;;;;;;;9.23;4.57;;;;;;;;;;4981241;28;20489;-72
2023/06/22 00:50:00;;;;;;;6.23;4.40;;;;;;;;;;4979466;28;20527;-72
2023/06/22 00:52:43;;;;;;;4.83;3.50;;;;;;;;;;5022497;23;20567;-80
2023/06/22 00:55:17;;;;;;;4.40;3.40;;;;;;;;;;4956655;28;20459;-82
2023/06/22 00:57:49;;;;;;;6.33;3.17;;;;;;;;;;4957642;29;20491;-82
2023/06/22 01:00:19;;;;;;;7.17;3.43;;;;;;;;;;4955888;29;20871;-81
2023/06/22 01:02:51;;;;;;;5.17;3.40;;;;;;;;;;4956754;28;20466;-82
2023/06/22 01:05:19;;;;;;;5.37;3.80;;;;;;;;;;4957312;28;20467;-83
2023/06/22 01:07:52;;;;;;;4.47;3.60;;;;;;;;;;4957214;29;21540;-82
2023/06/22 01:10:24;;;;;;;6.37;4.27;;;;;;;;;;4969711;28;20488;-80
2023/06/22 01:12:55;;;;;;;4.73;4.17;;;;;;;;;;5005225;28;20460;-83
2023/06/22 01:15:25;;;;;;;9.10;3.83;;;;;;;;;;5000235;23;20503;-72
2023/06/22 01:17:54;;;;;;;5.60;3.93;;;;;;;;;;4981803;28;20464;-73
2023/06/22 01:20:22;;;;;;;5.13;4.03;;;;;;;;;;4979527;28;20473;-71
2023/06/22 01:22:58;;;;;;;5.27;4.20;;;;;;;;;;4978604;28;20457;-71
2023/06/22 01:25:33;;;;;;;5.57;3.90;;;;;;;;;;4978402;28;20460;-71
2023/06/22 01:30:39;;;;;;;6.23;3.77;;;;;;;;;;1454779;26;20503;-82
2023/06/22 01:33:07;;;;;;;4.60;3.30;;;;;;;;;;4994896;28;20446;-82
2023/06/22 01:35:35;;;;;;;7.40;3.80;;;;;;;;;;4993566;28;20528;-82
2023/06/22 01:38:02;;;;;;;5.10;4.43;;;;;;;;;;4992985;28;20440;-81
2023/06/22 01:40:31;;;;;;;5.70;3.97;;;;;;;;;;4986675;28;20699;-81
2023/06/22 01:42:59;;;;;;;5.10;3.80;;;;;;;;;;4984191;28;20476;-80
2023/06/22 01:45:27;;;;;;;5.87;3.80;;;;;;;;;;4983879;28;20497;-81
2023/06/22 01:47:56;;;;;;;8.83;4.60;;;;;;;;;;4986827;28;20501;-81
2023/06/22 01:50:24;;;;;;;6.83;3.00;;;;;;;;;;4987806;28;20525;-81
2023/06/22 01:52:51;;;;;;;6.00;3.90;;;;;;;;;;4991636;28;20624;-81
2023/06/22 01:55:18;;;;;;;6.47;4.53;;;;;;;;;;4985324;28;20893;-80
2023/06/22 01:57:46;;;;;;;4.63;3.73;;;;;;;;;;4985124;28;20456;-81
2023/06/22 02:00:16;;;;;;;5.30;3.60;;;;;;;;;;4981969;28;20494;-80
2023/06/22 02:02:45;;;;;;;5.13;4.10;;;;;;;;;;4984696;28;20465;-80
2023/06/22 02:05:17;;;;;;;5.37;3.93;;;;;;;;;;4991409;28;20885;-81
2023/06/22 02:07:48;;;;;;;4.70;3.67;;;;;;;;;;4994246;28;20493;-80
2023/06/22 02:12:54;;;;;;;5.60;3.80;;;;;;;;;;4987818;28;20761;-83
2023/06/22 02:15:49;;;;;;;10.73;4.93;;;;;;;;;;5002531;23;20493;-73
2023/06/22 02:18:17;;;;;;;6.23;4.07;;;;;;;;;;4979635;28;20468;-73
2023/06/22 02:20:49;;;;;;;5.73;4.00;;;;;;;;;;4979701;28;20473;-73
2023/06/22 02:23:17;;;;;;;4.93;4.20;;;;;;;;;;4979231;28;20449;-72
2023/06/22 02:25:45;;;;;;;5.23;3.90;;;;;;;;;;4977254;28;20910;-72
2023/06/22 02:49:01;;;;;;;7.00;5.00;;;;;;;;;;5424870;23;20528;-73
2023/06/22 02:54:34;;;;;;;6.33;4.80;;;;;;;;;;4982219;28;20583;-72
2023/06/22 02:57:34;;;;;;;6.23;4.70;;;;;;;;;;4980750;28;20445;-73
2023/06/22 03:00:02;;;;;;;5.20;4.00;;;;;;;;;;4981083;28;20461;-70
2023/06/22 03:02:30;;;;;;;5.97;4.23;;;;;;;;;;4980518;28;20952;-72
2023/06/22 03:05:01;;;;;;;7.10;5.17;;;;;;;;;;4979749;28;20454;-72
2023/06/22 03:07:33;;;;;;;7.10;4.77;;;;;;;;;;4977549;28;20481;-72
2023/06/22 03:10:01;;;;;;;7.97;5.27;;;;;;;;;;4977782;28;20458;-72
2023/06/22 03:12:29;;;;;;;6.50;5.37;;;;;;;;;;4978139;28;20457;-72
2023/06/22 03:14:58;;;;;;;7.30;5.10;;;;;;;;;;4976320;28;21154;-72
2023/06/22 03:17:26;;;;;;;5.87;4.57;;;;;;;;;;4976016;28;20575;-72
2023/06/22 03:19:54;;;;;;;5.63;4.33;;;;;;;;;;4977150;28;20453;-71
2023/06/22 03:22:23;;;;;;;7.10;4.93;;;;;;;;;;4976801;28;20521;-72
2023/06/22 03:24:51;;;;;;;7.20;3.80;;;;;;;;;;4976822;28;20511;-72
2023/06/22 04:26:41;;;;;;;7.00;6.30;;;;;;;;;;4869166;23;20506;-82
2023/06/22 04:29:09;;;;;;;5.73;5.17;;;;;;;;;;4989813;28;20489;-82
2023/06/22 04:31:37;;;;;;;8.27;4.93;;;;;;;;;;4987970;28;20791;-80
2023/06/22 04:34:07;;;;;;;5.30;4.63;;;;;;;;;;4984653;28;20453;-80
2023/06/22 04:36:37;;;;;;;8.40;5.30;;;;;;;;;;4983971;28;20495;-79
2023/06/22 04:39:06;;;;;;;8.60;4.90;;;;;;;;;;4993093;28;20457;-83
2023/06/22 04:41:41;;;;;;;6.20;4.40;;;;;;;;;;4995633;28;20449;-82
2023/06/22 04:44:11;;;;;;;15.77;5.50;;;;;;;;;;4993700;28;20452;-81
2023/06/22 04:46:39;;;;;;;8.13;4.50;;;;;;;;;;4994004;28;20512;-80
2023/06/22 04:49:10;;;;;;;6.33;3.87;;;;;;;;;;4988341;28;20479;-81
2023/06/22 04:51:41;;;;;;;5.50;3.93;;;;;;;;;;4987272;28;20485;-81
2023/06/22 04:54:09;;;;;;;5.27;4.00;;;;;;;;;;4994029;28;20543;-82
2023/06/22 04:56:40;;;;;;;5.90;3.97;;;;;;;;;;4998968;28;20461;-81
2023/06/22 04:59:12;;;;;;;6.50;4.00;;;;;;;;;;4998844;28;20489;-81
2023/06/22 05:01:43;;;;;;;6.53;3.93;;;;;;;;;;4997918;28;20512;-81
2023/06/22 05:04:11;;;;;;;6.30;4.07;;;;;;;;;;4996372;28;20484;-81
2023/06/22 05:06:38;;;;;;;8.60;4.40;;;;;;;;;;4996685;28;20469;-82
2023/06/22 05:14:20;;;;;;;9.40;7.50;;;;;;;;;;4998228;23;20411;-72
2023/06/22 05:16:51;;;;;;;21.93;5.50;;;;;;;;;;4976323;28;20205;-74
2023/06/22 05:19:19;;;;;;;6.07;4.03;;;;;;;;;;4974995;28;20446;-73
2023/06/22 05:21:51;;;;;;;5.50;3.93;;;;;;;;;;4973671;28;20468;-73
2023/06/22 05:24:18;;;;;;;8.57;3.53;;;;;;;;;;4972646;28;20437;-75
2023/06/22 05:29:22;;;;;;;7.33;3.73;;;;;;;;;;3327372;26;20508;-81
2023/06/22 05:31:51;;;;;;;6.60;4.70;;;;;;;;;;4991566;28;20511;-82
2023/06/22 05:34:19;;;;;;;7.27;3.87;;;;;;;;;;4988587;28;20493;-82
2023/06/22 05:36:47;;;;;;;5.30;3.53;;;;;;;;;;4985072;28;20481;-83
2023/06/22 05:39:14;;;;;;;5.77;3.47;;;;;;;;;;4978563;28;20450;-81
2023/06/22 05:41:43;;;;;;;5.33;3.30;;;;;;;;;;4979942;28;20751;-80
2023/06/22 05:44:10;;;;;;;6.70;4.40;;;;;;;;;;4977332;28;20456;-80
2023/06/22 05:46:37;;;;;;;4.63;2.90;;;;;;;;;;4978630;28;20619;-81
2023/06/22 05:49:06;;;;;;;5.00;3.00;;;;;;;;;;4981708;28;20454;-82
2023/06/22 05:51:33;;;;;;;4.07;2.83;;;;;;;;;;4974439;28;20654;-81
2023/06/22 05:54:01;;;;;;;4.70;2.90;;;;;;;;;;4975021;28;20500;-80
2023/06/22 05:56:29;;;;;;;6.10;2.83;;;;;;;;;;4978564;28;20444;-81
2023/06/22 05:58:56;;;;;;;6.10;3.83;;;;;;;;;;4980111;28;20464;-83
2023/06/22 06:01:25;;;;;;;7.27;3.67;;;;;;;;;;4981374;28;20552;-82
2023/06/22 06:03:53;;;;;;;6.60;5.30;;;;;;;;;;4972109;28;20612;-81
2023/06/22 06:06:28;;;;;;;3.90;2.80;;;;;;;;;;4974866;28;20564;-81
2023/06/22 06:14:17;;;;;;;5.73;3.47;;;;;;;;;;4997931;23;20477;-74
2023/06/22 06:16:45;;;;;;;5.37;3.30;;;;;;;;;;4977929;28;20205;-73
2023/06/22 06:19:20;;;;;;;4.57;2.80;;;;;;;;;;4977504;28;20916;-73
2023/06/22 06:24:47;;;;;;;6.83;3.10;;;;;;;;;;4972727;28;20821;-74
2023/06/22 07:27:42;;;;;;;6.30;3.40;;;;;;;;;;4964034;23;20504;-84
2023/06/22 07:30:11;;;;;;;5.93;3.17;;;;;;;;;;4984322;28;20487;-81
2023/06/22 07:32:39;;;;;;;6.67;3.30;;;;;;;;;;4988779;28;20485;-81
2023/06/22 07:35:17;;;;;;;4.87;2.97;;;;;;;;;;4989581;28;20529;-82
2023/06/22 07:37:55;;;;;;;6.10;3.00;;;;;;;;;;4990046;28;20461;-82
2023/06/22 07:40:33;;;;;;;6.33;3.50;;;;;;;;;;4989889;28;20487;-82
2023/06/22 07:43:06;;;;;;;5.50;3.30;;;;;;;;;;4991417;28;20452;-82
2023/06/22 07:45:42;;;;;;;5.10;2.97;;;;;;;;;;4986645;28;20465;-81
2023/06/22 07:48:15;;;;;;;5.40;3.30;;;;;;;;;;4988586;28;20528;-78
2023/06/22 07:50:44;;;;;;;5.50;3.53;;;;;;;;;;4996693;28;20500;-79
2023/06/22 07:53:37;;;;;;;6.17;2.80;;;;;;;;;;4992635;28;20946;-81
2023/06/22 07:56:32;;;;;;;6.60;3.87;;;;;;;;;;4994268;28;20465;-78
2023/06/22 07:59:14;;;;;;;6.03;3.13;;;;;;;;;;4989721;28;20505;-80
2023/06/22 08:01:44;;;;;;;6.67;3.20;;;;;;;;;;4985283;28;20489;-79
2023/06/22 08:04:12;;;;;;;5.63;3.70;;;;;;;;;;4989889;28;20453;-78
2023/06/22 08:06:39;;;;;;;5.20;3.13;;;;;;;;;;4995303;28;20441;-78
2023/06/22 08:32:40;;;;;;;7.20;3.80;;;;;;;;;;5012183;28;20484;-81
2023/06/22 08:35:09;;;;;;;6.90;3.20;;;;;;;;;;5010925;28;20449;-82
2023/06/22 08:37:40;;;;;;;5.90;2.97;;;;;;;;;;5009696;28;20448;-80
2023/06/22 08:40:10;;;;;;;6.47;3.20;;;;;;;;;;4997127;28;20560;-81
2023/06/22 08:42:38;;;;;;;5.93;3.37;;;;;;;;;;5008244;28;20515;-82
2023/06/22 08:45:05;;;;;;;6.53;3.70;;;;;;;;;;5002555;28;20448;-79
2023/06/22 08:47:33;;;;;;;9.20;3.60;;;;;;;;;;5007895;28;20492;-81
2023/06/22 08:50:10;;;;;;;6.40;3.47;;;;;;;;;;5007240;28;20452;-80
2023/06/22 08:52:40;;;;;;;5.67;3.40;;;;;;;;;;5005408;28;20491;-82
2023/06/22 08:55:09;;;;;;;6.37;3.10;;;;;;;;;;5011648;28;20468;-82
2023/06/22 08:57:39;;;;;;;6.37;2.87;;;;;;;;;;5004926;28;20457;-82
2023/06/22 09:00:15;;;;;;;5.60;3.37;;;;;;;;;;5007207;28;20640;-84
2023/06/22 09:02:49;;;;;;;5.30;3.23;;;;;;;;;;4987971;28;20459;-81
2023/06/22 09:05:32;;;;;;;6.83;4.00;;;;;;;;;;4992218;28;20460;-82
2023/06/22 09:08:00;;;;;;;6.37;3.70;;;;;;;;;;4990196;28;20785;-80
2023/06/22 09:19:14;;;;;;;7.53;3.50;;;;;;;;;;4914943;28;21389;-73
2023/06/22 09:39:09;;;;;;;4.90;2.83;;;;;;;;;;4985712;28;20588;-82
2023/06/22 09:59:34;;;;;;;7.47;3.57;;;;;;;;;;5006422;28;20228;-79
2023/06/22 10:14:04;;;;;;;6.57;3.10;;;;;;;;;;5011866;23;20424;-73
2023/06/22 10:16:45;;;;;;;5.90;3.60;;;;;;;;;;4960978;28;20865;-73
2023/06/22 10:19:22;;;;;;;5.57;3.30;;;;;;;;;;4951984;29;20871;-73
2023/06/22 10:22:06;;;;;;;5.80;3.00;;;;;;;;;;4953312;29;20541;-74
2023/06/22 10:24:52;;;;;;;6.97;3.63;;;;;;;;;;4948555;29;20466;-72
2023/06/22 10:29:58;;;;;;;6.30;3.80;;;;;;;;;;4981580;23;20580;-80
2023/06/22 10:32:28;;;;;;;8.40;5.13;;;;;;;;;;4961123;28;20490;-78
2023/06/22 10:34:55;;;;;;;15.87;8.37;;;;;;;;;;4978133;28;20461;-82
2023/06/22 10:37:23;;;;;;;6.27;3.80;;;;;;;;;;4989586;28;20461;-81
2023/06/22 10:39:52;;;;;;;7.03;4.00;;;;;;;;;;4978757;28;20639;-81
2023/06/22 10:45:37;;;;;;;6.47;4.03;;;;;;;;;;4967258;28;20468;-81
2023/06/22 10:48:07;;;;;;;8.33;4.27;;;;;;;;;;4981438;28;20514;-82
2023/06/22 10:50:35;;;;;;;8.63;4.23;;;;;;;;;;4976378;28;20490;-80
2023/06/22 10:53:04;;;;;;;7.43;5.97;;;;;;;;;;4973848;28;20459;-80
2023/06/22 10:55:32;;;;;;;5.70;3.63;;;;;;;;;;4975566;28;20454;-83
2023/06/22 10:57:59;;;;;;;6.23;4.10;;;;;;;;;;4961961;28;20453;-81
2023/06/22 11:00:28;;;;;;;5.63;4.33;;;;;;;;;;4981648;28;20469;-80
2023/06/22 11:02:58;;;;;;;7.50;4.23;;;;;;;;;;4978406;28;20445;-81
2023/06/22 11:05:26;;;;;;;6.37;4.57;;;;;;;;;;4979619;28;20453;-80
2023/06/22 11:07:53;;;;;;;7.53;4.83;;;;;;;;;;4978045;28;20485;-81
2023/06/22 11:10:37;;;;;;;9.30;4.70;;;;;;;;;;4984954;28;20521;-81
2023/06/22 11:13:09;;;;;;;5.97;4.50;;;;;;;;;;4994102;28;20507;-79
2023/06/22 13:04:46;;;;;;;6.93;4.27;;;;;;;;;;4959613;28;20493;-75
2023/06/22 13:07:47;;;;;;;;;;;;;;;;;;;;;
2023/06/22 13:10:19;;;;;;;6.23;4.90;;;;;;;;;;4965931;28;20749;-72
2023/06/22 13:13:00;;;;;;;9.63;5.47;;;;;;;;;;4975787;28;20497;-74
2023/06/22 13:15:35;;;;;;;6.67;4.97;;;;;;;;;;4974787;28;20489;-73
2023/06/22 13:18:35;;;;;;;7.97;5.30;;;;;;;;;;4975308;28;20465;-73
2023/06/22 13:21:15;;;;;;;10.17;4.50;;;;;;;;;;4972972;28;20471;-73
2023/06/22 13:29:17;;;;;;;6.53;5.37;;;;;;;;;;3262909;26;20520;-73
2023/06/22 13:31:48;;;;;;;7.60;4.60;;;;;;;;;;4963265;28;20465;-73
2023/06/22 13:37:40;;;;;;;7.50;4.67;;;;;;;;;;4954682;28;20460;-71
2023/06/22 13:40:14;;;;;;;7.03;4.80;;;;;;;;;;4971770;28;20458;-72
2023/06/22 13:42:55;;;;;;;8.47;4.80;;;;;;;;;;4983605;28;20593;-73
2023/06/22 13:45:23;;;;;;;6.60;3.97;;;;;;;;;;4988511;28;20483;-73
2023/06/22 13:47:51;;;;;;;6.87;4.30;;;;;;;;;;4992460;28;20468;-73
2023/06/22 13:50:21;;;;;;;7.37;5.07;;;;;;;;;;4996965;28;20512;-74
2023/06/22 13:52:51;;;;;;;6.67;4.77;;;;;;;;;;4997955;28;20452;-74
2023/06/22 13:55:23;;;;;;;5.83;3.83;;;;;;;;;;4982679;28;20534;-73
2023/06/22 13:57:51;;;;;;;6.30;4.57;;;;;;;;;;4990189;28;20464;-73
2023/06/22 14:00:21;;;;;;;10.87;4.53;;;;;;;;;;4989685;28;20802;-73
2023/06/22 14:02:49;;;;;;;8.23;4.87;;;;;;;;;;4986477;28;20464;-73
2023/06/22 14:05:17;;;;;;;5.63;4.40;;;;;;;;;;4990568;28;20465;-73
2023/06/22 14:07:48;;;;;;;6.60;4.47;;;;;;;;;;4994078;28;20483;-73
2023/06/22 14:13:44;;;;;;;7.67;4.93;;;;;;;;;;4971036;28;20454;-71
2023/06/22 14:16:17;;;;;;;6.80;4.23;;;;;;;;;;4984616;28;20455;-74
2023/06/22 14:18:58;;;;;;;9.50;4.73;;;;;;;;;;4982304;28;20503;-75
2023/06/22 14:21:29;;;;;;;6.77;5.00;;;;;;;;;;4989715;28;20889;-72
2023/06/22 14:24:28;;;;;;;6.43;4.50;;;;;;;;;;4991769;28;20452;-74
2023/06/22 14:29:27;;;;;;;9.03;4.60;;;;;;;;;;4976827;28;20482;-84
2023/06/22 14:31:55;;;;;;;7.07;4.63;;;;;;;;;;4978245;28;20481;-80
2023/06/22 14:34:23;;;;;;;5.93;4.40;;;;;;;;;;4978985;28;20464;-81
2023/06/22 14:36:55;;;;;;;9.60;6.03;;;;;;;;;;4984384;28;20463;-84
2023/06/22 14:39:22;;;;;;;5.70;4.20;;;;;;;;;;4986021;28;20461;-84
2023/06/22 14:41:49;;;;;;;6.37;4.87;;;;;;;;;;4967741;28;20525;-84
2023/06/22 14:44:22;;;;;;;10.67;5.40;;;;;;;;;;4979645;28;20476;-81
2023/06/22 14:46:53;;;;;;;6.33;4.67;;;;;;;;;;4965997;28;20492;-82
2023/06/22 14:49:21;;;;;;;9.43;5.90;;;;;;;;;;4973285;28;20499;-81
2023/06/22 14:51:48;;;;;;;6.93;5.10;;;;;;;;;;4984692;28;20557;-80
2023/06/22 14:54:16;;;;;;;10.70;5.83;;;;;;;;;;4986481;28;20704;-81
2023/06/22 14:56:43;;;;;;;7.23;5.00;;;;;;;;;;4976771;28;20457;-82
2023/06/22 14:59:11;;;;;;;7.33;5.47;;;;;;;;;;4980858;28;20461;-81
2023/06/22 15:01:38;;;;;;;6.77;5.30;;;;;;;;;;4965134;28;21191;-82
2023/06/22 15:04:07;;;;;;;7.30;5.30;;;;;;;;;;4973195;28;20458;-85
2023/06/22 15:06:37;;;;;;;7.10;5.03;;;;;;;;;;4970457;28;20458;-79
2023/06/22 15:14:45;;;;;;;8.03;5.63;;;;;;;;;;5010183;23;20516;-74
2023/06/22 15:20:11;;;;;;;8.57;4.90;;;;;;;;;;4950844;29;20466;-73
2023/06/22 15:22:44;;;;;;;7.10;5.53;;;;;;;;;;4952468;29;20509;-73
2023/06/22 15:28:15;;;;;;;6.20;4.57;;;;;;;;;;4992468;23;20559;-80
2023/06/22 15:30:46;;;;;;;7.90;5.60;;;;;;;;;;4982569;28;20488;-82
2023/06/22 15:33:23;;;;;;;7.70;5.73;;;;;;;;;;4982542;28;20453;-79
2023/06/22 15:35:54;;;;;;;8.30;5.03;;;;;;;;;;4979470;28;20485;-81
2023/06/22 15:38:21;;;;;;;8.83;5.40;;;;;;;;;;4984660;28;20463;-82
2023/06/22 15:40:49;;;;;;;8.53;5.57;;;;;;;;;;4980276;28;20465;-81
2023/06/22 15:43:20;;;;;;;9.50;4.73;;;;;;;;;;4978662;28;20467;-80
2023/06/22 15:45:49;;;;;;;8.50;5.80;;;;;;;;;;4980773;28;20719;-84
2023/06/22 15:48:17;;;;;;;7.13;4.97;;;;;;;;;;4985563;28;20887;-83
2023/06/22 15:50:44;;;;;;;9.80;6.00;;;;;;;;;;4988099;28;20532;-82
2023/06/22 15:53:13;;;;;;;7.47;5.10;;;;;;;;;;4985877;28;20457;-81
2023/06/22 15:55:40;;;;;;;9.83;5.40;;;;;;;;;;4982607;28;20450;-82
2023/06/22 15:58:09;;;;;;;6.90;5.03;;;;;;;;;;4982585;28;20489;-81
2023/06/22 16:00:36;;;;;;;8.33;5.20;;;;;;;;;;4985590;28;20768;-81
2023/06/22 16:03:08;;;;;;;8.97;5.53;;;;;;;;;;4987184;28;20452;-80
2023/06/22 16:05:38;;;;;;;7.83;5.60;;;;;;;;;;4986445;28;20465;-81
2023/06/22 16:08:14;;;;;;;7.20;4.70;;;;;;;;;;4986619;28;20442;-82
2023/06/22 16:16:34;;;;;;;10.20;6.60;;;;;;;;;;4687643;26;20457;-75
2023/06/22 16:19:07;;;;;;;8.77;5.77;;;;;;;;;;4958630;28;20445;-74
2023/06/22 16:21:35;;;;;;;12.80;6.50;;;;;;;;;;4956238;28;20493;-75
2023/06/22 16:24:09;;;;;;;10.30;7.00;;;;;;;;;;4958607;28;20458;-74
2023/06/22 17:15:37;;;;;;;11.75;8.77;;;;;;;;;;5034755;22;3171311;-75
2023/06/22 17:18:06;;;;;;;11.10;9.27;;;;;;;;;;5110769;28;20193;-74
2023/06/22 17:23:15;;;;;;;11.93;9.87;;;;;;;;;;5111148;28;20518;-72
2023/06/22 17:25:46;;;;;;;14.53;11.47;;;;;;;;;;5110294;28;20439;-75
2023/06/22 17:31:09;;;;;;;12.50;9.70;;;;;;;;;;4407886;26;20475;-84
2023/06/22 17:33:37;;;;;;;10.83;9.37;;;;;;;;;;5098021;28;20440;-82
2023/06/22 17:36:05;;;;;;;9.63;8.63;;;;;;;;;;5097249;28;20471;-82
2023/06/22 17:38:32;;;;;;;11.23;9.80;;;;;;;;;;5096879;28;20474;-83
2023/06/22 17:41:03;;;;;;;10.80;9.40;;;;;;;;;;5081533;28;20455;-82
2023/06/22 17:43:30;;;;;;;10.87;9.83;;;;;;;;;;5086724;28;20515;-83
2023/06/22 17:45:59;;;;;;;10.93;9.83;;;;;;;;;;5083173;28;20445;-83
2023/06/22 17:48:27;;;;;;;9.80;8.80;;;;;;;;;;5083008;28;20544;-82
2023/06/22 17:50:54;;;;;;;11.07;9.70;;;;;;;;;;5085250;28;20464;-82
2023/06/22 17:53:21;;;;;;;11.63;10.43;;;;;;;;;;5090637;28;20813;-80
2023/06/22 17:55:54;;;;;;;11.60;9.43;;;;;;;;;;5090156;28;20522;-81
2023/06/22 17:58:21;;;;;;;8.23;6.60;;;;;;;;;;5085523;28;20864;-82
2023/06/22 18:00:49;;;;;;;9.50;6.57;;;;;;;;;;5084357;28;20455;-80
2023/06/22 18:03:24;;;;;;;7.50;6.27;;;;;;;;;;5081157;28;20463;-82
2023/06/22 18:05:53;;;;;;;7.90;5.50;;;;;;;;;;5082035;28;20447;-82
2023/06/22 18:11:36;;;;;;;8.23;6.47;;;;;;;;;;5080208;28;20411;-82
2023/06/22 18:16:47;;;;;;;5.13;4.53;;;;;;;;;;4996445;28;20532;-75
2023/06/22 18:19:26;;;;;;;5.70;4.77;;;;;;;;;;4998404;28;20478;-74
2023/06/22 18:21:56;;;;;;;6.30;4.20;;;;;;;;;;4999146;28;20493;-74
2023/06/22 18:24:26;;;;;;;8.07;5.13;;;;;;;;;;5003352;28;20456;-74
2023/06/22 18:29:30;;;;;;;5.77;4.13;;;;;;;;;;4777081;26;20477;-83
2023/06/22 18:31:58;;;;;;;6.10;4.10;;;;;;;;;;5043778;28;20457;-85
2023/06/22 18:34:29;;;;;;;4.77;3.97;;;;;;;;;;5037674;28;20481;-84
2023/06/22 18:36:58;;;;;;;5.30;4.10;;;;;;;;;;5037011;28;20465;-84
2023/06/22 18:39:26;;;;;;;5.00;3.43;;;;;;;;;;5042350;28;20474;-82
2023/06/22 18:41:54;;;;;;;6.07;3.70;;;;;;;;;;5043170;28;20465;-84
2023/06/22 18:44:22;;;;;;;5.40;3.80;;;;;;;;;;5040618;28;20501;-84
2023/06/22 18:46:52;;;;;;;5.23;3.50;;;;;;;;;;5043031;28;20450;-83
2023/06/22 18:49:23;;;;;;;6.37;3.67;;;;;;;;;;5045149;28;20497;-83
2023/06/22 18:51:56;;;;;;;4.30;3.10;;;;;;;;;;5042730;28;20462;-83
2023/06/22 18:54:24;;;;;;;4.50;3.57;;;;;;;;;;5041504;28;20538;-83
2023/06/22 18:56:55;;;;;;;5.43;4.23;;;;;;;;;;5040256;28;20794;-83
2023/06/22 18:59:41;;;;;;;4.57;3.80;;;;;;;;;;5041229;28;20920;-83
2023/06/22 19:02:10;;;;;;;6.27;4.27;;;;;;;;;;5042824;28;20450;-84
2023/06/22 19:04:38;;;;;;;5.03;4.10;;;;;;;;;;5042384;28;20458;-83
2023/06/22 19:07:08;;;;;;;6.20;3.00;;;;;;;;;;5044132;28;20466;-83
2023/06/22 19:30:29;;;;;;;5.40;3.77;;;;;;;;;;1486583;26;20519;-83
2023/06/22 19:32:57;;;;;;;4.60;3.90;;;;;;;;;;5047621;28;20466;-83
2023/06/22 19:35:24;;;;;;;5.53;4.17;;;;;;;;;;5051053;28;20452;-83
2023/06/22 19:37:52;;;;;;;5.40;3.47;;;;;;;;;;5045919;28;20499;-82
2023/06/22 19:40:19;;;;;;;4.77;3.97;;;;;;;;;;5045108;28;20469;-83
2023/06/22 19:42:46;;;;;;;6.53;4.23;;;;;;;;;;5043173;28;20462;-82
2023/06/22 19:45:18;;;;;;;6.07;3.60;;;;;;;;;;5042541;28;20448;-81
2023/06/22 19:47:46;;;;;;;4.13;3.20;;;;;;;;;;5041395;28;20445;-83
2023/06/22 19:50:18;;;;;;;4.93;3.93;;;;;;;;;;5044111;28;20458;-83
2023/06/22 19:52:48;;;;;;;5.33;4.23;;;;;;;;;;5044866;28;20482;-83
2023/06/22 19:55:15;;;;;;;5.20;4.20;;;;;;;;;;5045277;28;20434;-82
2023/06/22 19:57:45;;;;;;;5.10;3.70;;;;;;;;;;5040711;28;20451;-82
2023/06/22 20:00:21;;;;;;;7.60;3.80;;;;;;;;;;5033289;28;20486;-82
2023/06/22 20:02:54;;;;;;;4.80;3.90;;;;;;;;;;5039264;28;20431;-82
2023/06/22 20:05:22;;;;;;;4.60;3.70;;;;;;;;;;5042610;28;20491;-81
2023/06/22 20:07:50;;;;;;;5.30;3.83;;;;;;;;;;5048385;28;20454;-83
2023/06/22 20:13:28;;;;;;;4.93;3.43;;;;;;;;;;5047187;28;20469;-83
2023/06/22 20:16:20;;;;;;;6.00;3.80;;;;;;;;;;5047543;22;20561;-74
2023/06/22 20:18:50;;;;;;;5.77;5.10;;;;;;;;;;5036145;28;20466;-73
2023/06/22 20:21:26;;;;;;;6.00;4.23;;;;;;;;;;5036552;28;20529;-73
2023/06/22 20:23:54;;;;;;;5.20;3.77;;;;;;;;;;5035212;28;20508;-74
2023/06/22 20:31:29;;;;;;;7.23;4.23;;;;;;;;;;5039744;28;20532;-84
2023/06/22 20:34:05;;;;;;;5.73;4.30;;;;;;;;;;5042793;28;20466;-85
2023/06/22 20:36:33;;;;;;;6.03;5.43;;;;;;;;;;5045823;28;20545;-85
2023/06/22 20:39:00;;;;;;;5.93;4.70;;;;;;;;;;5040596;28;20520;-83
2023/06/22 20:41:29;;;;;;;6.53;4.73;;;;;;;;;;5039789;28;20465;-82
2023/06/22 20:43:56;;;;;;;6.87;5.00;;;;;;;;;;5036877;28;20757;-83
2023/06/22 20:46:24;;;;;;;12.00;5.23;;;;;;;;;;5036523;28;20847;-84
2023/06/22 20:48:51;;;;;;;7.87;4.77;;;;;;;;;;5039560;28;20969;-84
2023/06/22 20:51:20;;;;;;;10.43;5.73;;;;;;;;;;5039085;28;20870;-84
2023/06/22 20:53:47;;;;;;;6.53;5.37;;;;;;;;;;5040621;28;20853;-83
2023/06/22 20:56:15;;;;;;;6.53;4.47;;;;;;;;;;5043339;28;20450;-83
2023/06/22 20:58:50;;;;;;;6.43;4.97;;;;;;;;;;5045420;28;20443;-84
2023/06/22 21:01:18;;;;;;;6.47;5.20;;;;;;;;;;5047405;28;20426;-83
2023/06/22 21:03:45;;;;;;;7.87;5.03;;;;;;;;;;5047568;28;20454;-84
2023/06/22 21:06:23;;;;;;;7.47;5.40;;;;;;;;;;5045718;28;20517;-83
2023/06/22 21:11:56;;;;;;;6.53;4.93;;;;;;;;;;5043592;28;20425;-83
2023/06/22 21:14:45;;;;;;;7.70;5.60;;;;;;;;;;5051980;22;20567;-72
2023/06/22 21:17:13;;;;;;;9.37;6.53;;;;;;;;;;5039656;28;20456;-74
2023/06/22 21:19:42;;;;;;;7.27;6.57;;;;;;;;;;5038759;28;20446;-74
2023/06/22 21:22:13;;;;;;;7.93;5.20;;;;;;;;;;5039118;28;20489;-72
2023/06/22 21:24:43;;;;;;;8.50;6.70;;;;;;;;;;5028291;28;20541;-74
2023/06/22 22:13:01;;;;;;;6.20;4.87;;;;;;;;;;5055583;22;20528;-73
2023/06/22 22:15:59;;;;;;;7.37;6.00;;;;;;;;;;5057911;28;20474;-74
2023/06/22 22:18:28;;;;;;;7.83;5.53;;;;;;;;;;5056657;28;20818;-73
2023/06/22 22:21:11;;;;;;;6.50;5.30;;;;;;;;;;5051026;28;20458;-76
2023/06/22 22:23:39;;;;;;;5.77;5.10;;;;;;;;;;5035792;28;20450;-72
2023/06/22 23:14:52;;;;;;;6.60;4.10;;;;;;;;;;5002017;22;20523;-73
2023/06/22 23:17:23;;;;;;;4.97;3.60;;;;;;;;;;5037244;28;20454;-73
2023/06/22 23:19:53;;;;;;;7.60;4.10;;;;;;;;;;5037559;28;20453;-73
2023/06/22 23:22:24;;;;;;;4.60;3.90;;;;;;;;;;5038946;28;20450;-72
2023/06/22 23:24:52;;;;;;;4.40;3.60;;;;;;;;;;5036665;28;20458;-72
2023/06/22 23:29:56;;;;;;;6.63;4.47;;;;;;;;;;1484982;26;20497;-82
2023/06/22 23:32:25;;;;;;;5.17;4.30;;;;;;;;;;5040319;28;20454;-83
2023/06/22 23:34:54;;;;;;;6.90;3.93;;;;;;;;;;5038103;28;20474;-84
2023/06/22 23:37:25;;;;;;;5.90;3.87;;;;;;;;;;5037769;28;20468;-83
2023/06/22 23:39:56;;;;;;;6.60;4.10;;;;;;;;;;5043176;28;20565;-82
2023/06/22 23:42:25;;;;;;;4.53;4.00;;;;;;;;;;5042359;28;20684;-82
2023/06/22 23:44:57;;;;;;;6.40;3.43;;;;;;;;;;5042625;28;20462;-82
2023/06/22 23:47:32;;;;;;;6.47;4.03;;;;;;;;;;5043681;28;20470;-83
2023/06/22 23:50:00;;;;;;;7.40;4.27;;;;;;;;;;5044150;28;20752;-83
2023/06/22 23:52:33;;;;;;;5.47;3.73;;;;;;;;;;5048937;28;20438;-83
2023/06/22 23:55:00;;;;;;;8.33;4.60;;;;;;;;;;5043668;28;20450;-83
2023/06/22 23:57:32;;;;;;;7.10;4.00;;;;;;;;;;5045605;28;20450;-82
